sensor_id;sensor_type;location;lat;lon;timestamp;temperature;humidity
10889;DHT22;5497;51.388;6.780;2023-04-25T00:00:21;7.10;99.90
10889;DHT22;5497;51.388;6.780;2023-04-25T00:02:48;7.10;99.90
10889;DHT22;5497;51.388;6.780;2023-04-25T00:05:15;7.10;99.90
10889;DHT22;5497;51.388;6.780;2023-04-25T00:07:42;7.10;99.90
10889;DHT22;5497;51.388;6.780;2023-04-25T00:10:09;7.20;99.90
10889;DHT22;5497;51.388;6.780;2023-04-25T00:12:37;7.30;99.90
10889;DHT22;5497;51.388;6.780;2023-04-25T00:15:04;7.30;99.90
10889;DHT22;5497;51.388;6.780;2023-04-25T00:17:33;7.40;99.90
10889;DHT22;5497;51.388;6.780;2023-04-25T00:20:00;7.40;99.90
10889;DHT22;5497;51.388;6.780;2023-04-25T00:22:30;7.50;99.90
10889;DHT22;5497;51.388;6.780;2023-04-25T00:24:57;7.50;99.90
10889;DHT22;5497;51.388;6.780;2023-04-25T00:27:25;7.50;99.90
10889;DHT22;5497;51.388;6.780;2023-04-25T00:29:52;7.60;99.90
10889;DHT22;5497;51.388;6.780;2023-04-25T00:32:19;7.60;99.90
10889;DHT22;5497;51.388;6.780;2023-04-25T00:34:47;7.60;99.90
10889;DHT22;5497;51.388;6.780;2023-04-25T00:37:14;7.60;99.90
10889;DHT22;5497;51.388;6.780;2023-04-25T00:39:41;7.60;99.90
10889;DHT22;5497;51.388;6.780;2023-04-25T00:42:08;7.60;99.90
10889;DHT22;5497;51.388;6.780;2023-04-25T00:44:35;7.60;99.90
10889;DHT22;5497;51.388;6.780;2023-04-25T00:47:02;7.60;99.90
10889;DHT22;5497;51.388;6.780;2023-04-25T00:49:29;7.60;99.90
10889;DHT22;5497;51.388;6.780;2023-04-25T00:51:58;7.60;99.90
10889;DHT22;5497;51.388;6.780;2023-04-25T00:54:24;7.50;99.90
10889;DHT22;5497;51.388;6.780;2023-04-25T00:56:52;7.50;99.90
10889;DHT22;5497;51.388;6.780;2023-04-25T00:59:19;7.50;99.90
10889;DHT22;5497;51.388;6.780;2023-04-25T01:01:47;7.50;99.90
10889;DHT22;5497;51.388;6.780;2023-04-25T01:04:14;7.60;99.90
10889;DHT22;5497;51.388;6.780;2023-04-25T01:06:41;7.60;99.90
10889;DHT22;5497;51.388;6.780;2023-04-25T01:09:09;7.50;99.90
10889;DHT22;5497;51.388;6.780;2023-04-25T01:11:36;7.60;99.90
10889;DHT22;5497;51.388;6.780;2023-04-25T01:14:05;7.60;99.90
10889;DHT22;5497;51.388;6.780;2023-04-25T01:16:32;7.60;99.90
10889;DHT22;5497;51.388;6.780;2023-04-25T01:18:59;7.60;99.90
10889;DHT22;5497;51.388;6.780;2023-04-25T01:21:28;7.70;99.90
10889;DHT22;5497;51.388;6.780;2023-04-25T01:23:56;7.60;99.90
10889;DHT22;5497;51.388;6.780;2023-04-25T01:26:23;7.60;99.90
10889;DHT22;5497;51.388;6.780;2023-04-25T01:29:03;7.60;99.90
10889;DHT22;5497;51.388;6.780;2023-04-25T01:31:31;7.60;99.90
10889;DHT22;5497;51.388;6.780;2023-04-25T01:33:58;7.60;99.90
10889;DHT22;5497;51.388;6.780;2023-04-25T01:36:29;7.70;99.90
10889;DHT22;5497;51.388;6.780;2023-04-25T01:38:56;7.60;99.90
10889;DHT22;5497;51.388;6.780;2023-04-25T01:41:23;7.60;99.90
10889;DHT22;5497;51.388;6.780;2023-04-25T01:43:53;7.70;99.90
10889;DHT22;5497;51.388;6.780;2023-04-25T01:46:21;7.70;99.90
10889;DHT22;5497;51.388;6.780;2023-04-25T01:48:48;7.70;99.90
10889;DHT22;5497;51.388;6.780;2023-04-25T01:51:15;7.70;99.90
10889;DHT22;5497;51.388;6.780;2023-04-25T01:53:43;7.60;99.90
10889;DHT22;5497;51.388;6.780;2023-04-25T01:56:11;7.60;99.90
10889;DHT22;5497;51.388;6.780;2023-04-25T01:58:39;7.60;99.90
10889;DHT22;5497;51.388;6.780;2023-04-25T02:01:08;7.60;99.90
10889;DHT22;5497;51.388;6.780;2023-04-25T02:03:42;7.60;99.90
10889;DHT22;5497;51.388;6.780;2023-04-25T02:06:17;7.60;99.90
10889;DHT22;5497;51.388;6.780;2023-04-25T02:08:47;7.60;99.90
10889;DHT22;5497;51.388;6.780;2023-04-25T02:11:15;7.60;99.90
10889;DHT22;5497;51.388;6.780;2023-04-25T02:13:50;7.60;99.90
10889;DHT22;5497;51.388;6.780;2023-04-25T02:16:35;7.60;99.90
10889;DHT22;5497;51.388;6.780;2023-04-25T02:19:02;7.50;99.90
10889;DHT22;5497;51.388;6.780;2023-04-25T02:21:29;7.50;99.90
10889;DHT22;5497;51.388;6.780;2023-04-25T02:23:58;7.50;99.90
10889;DHT22;5497;51.388;6.780;2023-04-25T02:26:27;7.50;99.90
10889;DHT22;5497;51.388;6.780;2023-04-25T02:28:54;7.60;99.90
10889;DHT22;5497;51.388;6.780;2023-04-25T02:31:21;7.60;99.90
10889;DHT22;5497;51.388;6.780;2023-04-25T02:33:49;7.60;99.90
10889;DHT22;5497;51.388;6.780;2023-04-25T02:36:16;7.60;99.90
10889;DHT22;5497;51.388;6.780;2023-04-25T02:38:43;7.50;99.90
10889;DHT22;5497;51.388;6.780;2023-04-25T02:41:11;7.50;99.90
10889;DHT22;5497;51.388;6.780;2023-04-25T02:43:38;7.50;99.90
10889;DHT22;5497;51.388;6.780;2023-04-25T02:46:05;7.40;99.90
10889;DHT22;5497;51.388;6.780;2023-04-25T02:48:31;7.30;99.90
10889;DHT22;5497;51.388;6.780;2023-04-25T02:50:58;7.40;99.90
10889;DHT22;5497;51.388;6.780;2023-04-25T02:53:25;7.40;99.90
10889;DHT22;5497;51.388;6.780;2023-04-25T02:55:53;7.30;99.90
10889;DHT22;5497;51.388;6.780;2023-04-25T02:58:21;7.30;99.90
10889;DHT22;5497;51.388;6.780;2023-04-25T03:00:50;7.40;99.90
10889;DHT22;5497;51.388;6.780;2023-04-25T03:03:17;7.30;99.90
10889;DHT22;5497;51.388;6.780;2023-04-25T03:05:47;7.40;99.90
10889;DHT22;5497;51.388;6.780;2023-04-25T03:08:16;7.50;99.90
10889;DHT22;5497;51.388;6.780;2023-04-25T03:10:42;7.30;99.90
10889;DHT22;5497;51.388;6.780;2023-04-25T03:13:10;7.30;99.90
10889;DHT22;5497;51.388;6.780;2023-04-25T03:15:39;7.30;99.90
10889;DHT22;5497;51.388;6.780;2023-04-25T03:18:06;7.20;99.90
10889;DHT22;5497;51.388;6.780;2023-04-25T03:20:34;7.20;99.90
10889;DHT22;5497;51.388;6.780;2023-04-25T03:23:02;7.20;99.90
10889;DHT22;5497;51.388;6.780;2023-04-25T03:25:29;7.10;99.90
10889;DHT22;5497;51.388;6.780;2023-04-25T03:27:56;7.20;99.90
10889;DHT22;5497;51.388;6.780;2023-04-25T03:30:23;7.10;99.90
10889;DHT22;5497;51.388;6.780;2023-04-25T03:32:52;7.10;99.90
10889;DHT22;5497;51.388;6.780;2023-04-25T03:35:18;7.10;99.90
10889;DHT22;5497;51.388;6.780;2023-04-25T03:37:45;7.00;99.90
10889;DHT22;5497;51.388;6.780;2023-04-25T03:40:18;6.90;99.90
10889;DHT22;5497;51.388;6.780;2023-04-25T03:43:03;7.00;99.90
10889;DHT22;5497;51.388;6.780;2023-04-25T03:45:30;6.90;99.90
10889;DHT22;5497;51.388;6.780;2023-04-25T03:47:58;6.90;99.90
10889;DHT22;5497;51.388;6.780;2023-04-25T03:50:35;6.90;99.90
10889;DHT22;5497;51.388;6.780;2023-04-25T03:53:02;6.80;99.90
10889;DHT22;5497;51.388;6.780;2023-04-25T03:55:38;6.80;99.90
10889;DHT22;5497;51.388;6.780;2023-04-25T03:58:06;6.80;99.90
10889;DHT22;5497;51.388;6.780;2023-04-25T04:00:34;6.80;99.90
10889;DHT22;5497;51.388;6.780;2023-04-25T04:03:02;6.80;99.90
10889;DHT22;5497;51.388;6.780;2023-04-25T04:05:29;6.80;99.90
10889;DHT22;5497;51.388;6.780;2023-04-25T04:07:56;6.80;99.90
10889;DHT22;5497;51.388;6.780;2023-04-25T04:10:23;6.80;99.90
10889;DHT22;5497;51.388;6.780;2023-04-25T04:12:51;6.80;99.90
10889;DHT22;5497;51.388;6.780;2023-04-25T04:15:18;6.70;99.90
10889;DHT22;5497;51.388;6.780;2023-04-25T04:17:46;7.80;99.90
10889;DHT22;5497;51.388;6.780;2023-04-25T04:20:14;6.70;99.90
10889;DHT22;5497;51.388;6.780;2023-04-25T04:22:41;4.90;99.90
10889;DHT22;5497;51.388;6.780;2023-04-25T04:25:10;6.60;99.90
10889;DHT22;5497;51.388;6.780;2023-04-25T04:28:10;6.40;99.90
10889;DHT22;5497;51.388;6.780;2023-04-25T04:31:00;6.40;99.90
10889;DHT22;5497;51.388;6.780;2023-04-25T04:33:28;6.30;99.90
10889;DHT22;5497;51.388;6.780;2023-04-25T04:36:01;6.30;99.90
10889;DHT22;5497;51.388;6.780;2023-04-25T04:38:28;6.30;99.90
10889;DHT22;5497;51.388;6.780;2023-04-25T04:40:58;6.30;99.90
10889;DHT22;5497;51.388;6.780;2023-04-25T04:43:39;6.30;99.90
10889;DHT22;5497;51.388;6.780;2023-04-25T04:46:21;6.40;99.90
10889;DHT22;5497;51.388;6.780;2023-04-25T04:49:10;6.40;99.90
10889;DHT22;5497;51.388;6.780;2023-04-25T04:51:58;6.40;99.90
10889;DHT22;5497;51.388;6.780;2023-04-25T04:54:48;6.40;99.90
10889;DHT22;5497;51.388;6.780;2023-04-25T04:57:33;6.40;99.90
10889;DHT22;5497;51.388;6.780;2023-04-25T05:00:29;6.40;99.90
10889;DHT22;5497;51.388;6.780;2023-04-25T05:03:14;6.40;99.90
10889;DHT22;5497;51.388;6.780;2023-04-25T05:05:51;6.40;99.90
10889;DHT22;5497;51.388;6.780;2023-04-25T05:08:33;6.50;99.90
10889;DHT22;5497;51.388;6.780;2023-04-25T05:11:22;6.50;99.90
10889;DHT22;5497;51.388;6.780;2023-04-25T05:14:01;6.50;99.90
10889;DHT22;5497;51.388;6.780;2023-04-25T05:17:07;6.60;99.90
10889;DHT22;5497;51.388;6.780;2023-04-25T05:19:49;6.80;99.90
10889;DHT22;5497;51.388;6.780;2023-04-25T05:22:32;6.90;99.90
10889;DHT22;5497;51.388;6.780;2023-04-25T05:25:20;7.10;99.90
10889;DHT22;5497;51.388;6.780;2023-04-25T05:27:56;7.30;99.90
10889;DHT22;5497;51.388;6.780;2023-04-25T05:30:42;7.40;99.90
10889;DHT22;5497;51.388;6.780;2023-04-25T05:33:14;7.50;99.90
10889;DHT22;5497;51.388;6.780;2023-04-25T05:35:41;7.50;99.90
10889;DHT22;5497;51.388;6.780;2023-04-25T05:38:08;8.50;99.90
10889;DHT22;5497;51.388;6.780;2023-04-25T05:40:56;8.40;99.90
10889;DHT22;5497;51.388;6.780;2023-04-25T05:43:39;8.30;99.90
10889;DHT22;5497;51.388;6.780;2023-04-25T05:46:26;8.90;99.90
10889;DHT22;5497;51.388;6.780;2023-04-25T05:49:19;9.00;99.90
10889;DHT22;5497;51.388;6.780;2023-04-25T05:52:19;9.00;99.90
10889;DHT22;5497;51.388;6.780;2023-04-25T05:55:18;8.90;99.90
10889;DHT22;5497;51.388;6.780;2023-04-25T05:57:46;8.90;99.90
10889;DHT22;5497;51.388;6.780;2023-04-25T06:00:13;8.90;99.90
10889;DHT22;5497;51.388;6.780;2023-04-25T06:02:42;9.00;99.90
10889;DHT22;5497;51.388;6.780;2023-04-25T06:05:12;9.00;99.90
10889;DHT22;5497;51.388;6.780;2023-04-25T06:07:38;9.10;99.90
10889;DHT22;5497;51.388;6.780;2023-04-25T06:10:06;9.20;99.90
10889;DHT22;5497;51.388;6.780;2023-04-25T06:12:33;9.40;99.90
10889;DHT22;5497;51.388;6.780;2023-04-25T06:15:01;9.60;99.90
10889;DHT22;5497;51.388;6.780;2023-04-25T06:17:30;10.00;99.90
10889;DHT22;5497;51.388;6.780;2023-04-25T06:19:57;10.50;99.90
10889;DHT22;5497;51.388;6.780;2023-04-25T06:22:24;10.80;99.90
10889;DHT22;5497;51.388;6.780;2023-04-25T06:24:51;11.20;99.90
10889;DHT22;5497;51.388;6.780;2023-04-25T06:27:18;11.50;99.90
10889;DHT22;5497;51.388;6.780;2023-04-25T06:29:45;11.90;99.90
10889;DHT22;5497;51.388;6.780;2023-04-25T06:32:14;12.20;99.90
10889;DHT22;5497;51.388;6.780;2023-04-25T06:34:41;12.60;99.90
10889;DHT22;5497;51.388;6.780;2023-04-25T06:37:08;13.70;99.90
10889;DHT22;5497;51.388;6.780;2023-04-25T06:39:35;14.00;99.90
10889;DHT22;5497;51.388;6.780;2023-04-25T06:42:02;14.60;99.90
10889;DHT22;5497;51.388;6.780;2023-04-25T06:44:58;15.30;99.90
10889;DHT22;5497;51.388;6.780;2023-04-25T06:47:26;15.30;99.90
10889;DHT22;5497;51.388;6.780;2023-04-25T06:49:53;15.70;99.90
10889;DHT22;5497;51.388;6.780;2023-04-25T06:52:19;15.80;99.90
10889;DHT22;5497;51.388;6.780;2023-04-25T06:54:47;14.40;99.90
10889;DHT22;5497;51.388;6.780;2023-04-25T06:57:24;14.70;99.90
10889;DHT22;5497;51.388;6.780;2023-04-25T06:59:52;14.00;99.90
10889;DHT22;5497;51.388;6.780;2023-04-25T07:02:19;15.00;99.90
10889;DHT22;5497;51.388;6.780;2023-04-25T07:04:48;15.40;99.90
10889;DHT22;5497;51.388;6.780;2023-04-25T07:07:15;15.10;99.90
10889;DHT22;5497;51.388;6.780;2023-04-25T07:09:52;14.30;99.90
10889;DHT22;5497;51.388;6.780;2023-04-25T07:12:20;13.90;99.90
10889;DHT22;5497;51.388;6.780;2023-04-25T07:14:47;13.80;99.90
10889;DHT22;5497;51.388;6.780;2023-04-25T07:17:14;13.80;99.90
10889;DHT22;5497;51.388;6.780;2023-04-25T07:19:41;14.60;99.90
10889;DHT22;5497;51.388;6.780;2023-04-25T07:22:10;15.90;99.90
10889;DHT22;5497;51.388;6.780;2023-04-25T07:24:39;17.30;99.90
10889;DHT22;5497;51.388;6.780;2023-04-25T07:27:11;19.20;99.90
10889;DHT22;5497;51.388;6.780;2023-04-25T07:30:01;21.40;99.90
10889;DHT22;5497;51.388;6.780;2023-04-25T07:32:28;22.00;99.90
10889;DHT22;5497;51.388;6.780;2023-04-25T07:34:56;23.10;99.90
10889;DHT22;5497;51.388;6.780;2023-04-25T07:37:24;23.90;99.90
10889;DHT22;5497;51.388;6.780;2023-04-25T07:40:01;24.40;99.90
10889;DHT22;5497;51.388;6.780;2023-04-25T07:42:29;24.70;99.90
10889;DHT22;5497;51.388;6.780;2023-04-25T07:44:56;24.70;99.90
10889;DHT22;5497;51.388;6.780;2023-04-25T07:47:23;24.50;99.90
10889;DHT22;5497;51.388;6.780;2023-04-25T07:49:51;24.40;99.90
10889;DHT22;5497;51.388;6.780;2023-04-25T07:52:18;24.00;99.90
10889;DHT22;5497;51.388;6.780;2023-04-25T07:54:52;23.70;99.90
10889;DHT22;5497;51.388;6.780;2023-04-25T07:57:26;22.60;99.90
10889;DHT22;5497;51.388;6.780;2023-04-25T07:59:54;22.50;99.90
10889;DHT22;5497;51.388;6.780;2023-04-25T08:02:21;21.60;99.90
10889;DHT22;5497;51.388;6.780;2023-04-25T08:04:48;20.90;99.90
10889;DHT22;5497;51.388;6.780;2023-04-25T08:07:17;18.30;99.90
10889;DHT22;5497;51.388;6.780;2023-04-25T08:09:55;19.70;99.90
10889;DHT22;5497;51.388;6.780;2023-04-25T08:12:26;18.70;99.90
10889;DHT22;5497;51.388;6.780;2023-04-25T08:14:52;19.30;99.90
10889;DHT22;5497;51.388;6.780;2023-04-25T08:17:21;20.20;99.90
10889;DHT22;5497;51.388;6.780;2023-04-25T08:19:49;20.10;99.90
10889;DHT22;5497;51.388;6.780;2023-04-25T08:22:23;19.20;99.90
10889;DHT22;5497;51.388;6.780;2023-04-25T08:24:56;18.20;99.90
10889;DHT22;5497;51.388;6.780;2023-04-25T08:27:23;19.50;99.90
10889;DHT22;5497;51.388;6.780;2023-04-25T08:29:50;19.80;99.90
10889;DHT22;5497;51.388;6.780;2023-04-25T08:32:18;20.70;99.90
10889;DHT22;5497;51.388;6.780;2023-04-25T08:35:01;21.60;99.90
10889;DHT22;5497;51.388;6.780;2023-04-25T08:37:28;21.50;99.90
10889;DHT22;5497;51.388;6.780;2023-04-25T08:40:01;21.10;99.90
10889;DHT22;5497;51.388;6.780;2023-04-25T08:42:44;20.10;99.90
10889;DHT22;5497;51.388;6.780;2023-04-25T08:45:13;19.60;99.90
10889;DHT22;5497;51.388;6.780;2023-04-25T08:47:41;20.30;99.90
10889;DHT22;5497;51.388;6.780;2023-04-25T08:50:09;21.50;99.90
10889;DHT22;5497;51.388;6.780;2023-04-25T08:52:37;21.90;99.90
10889;DHT22;5497;51.388;6.780;2023-04-25T08:55:08;20.10;99.90
10889;DHT22;5497;51.388;6.780;2023-04-25T08:57:37;20.00;99.90
10889;DHT22;5497;51.388;6.780;2023-04-25T09:00:05;19.00;99.90
10889;DHT22;5497;51.388;6.780;2023-04-25T09:02:35;17.60;99.90
10889;DHT22;5497;51.388;6.780;2023-04-25T09:05:02;17.50;99.90
10889;DHT22;5497;51.388;6.780;2023-04-25T09:07:30;16.90;99.90
10889;DHT22;5497;51.388;6.780;2023-04-25T09:09:57;16.70;99.90
10889;DHT22;5497;51.388;6.780;2023-04-25T09:12:26;16.80;99.90
10889;DHT22;5497;51.388;6.780;2023-04-25T09:15:06;15.80;99.90
10889;DHT22;5497;51.388;6.780;2023-04-25T09:18:03;16.10;99.90
10889;DHT22;5497;51.388;6.780;2023-04-25T09:20:41;17.30;99.90
10889;DHT22;5497;51.388;6.780;2023-04-25T09:23:07;18.70;99.90
10889;DHT22;5497;51.388;6.780;2023-04-25T09:25:37;18.50;99.90
10889;DHT22;5497;51.388;6.780;2023-04-25T09:28:07;18.60;99.90
10889;DHT22;5497;51.388;6.780;2023-04-25T09:30:34;19.10;99.90
10889;DHT22;5497;51.388;6.780;2023-04-25T09:33:28;19.40;99.90
10889;DHT22;5497;51.388;6.780;2023-04-25T09:36:00;19.30;99.90
10889;DHT22;5497;51.388;6.780;2023-04-25T09:38:57;19.20;99.40
10889;DHT22;5497;51.388;6.780;2023-04-25T09:41:31;19.20;99.50
10889;DHT22;5497;51.388;6.780;2023-04-25T09:44:02;19.50;98.90
10889;DHT22;5497;51.388;6.780;2023-04-25T09:46:35;19.50;97.70
10889;DHT22;5497;51.388;6.780;2023-04-25T09:49:06;19.20;96.90
10889;DHT22;5497;51.388;6.780;2023-04-25T09:51:40;16.70;95.00
10889;DHT22;5497;51.388;6.780;2023-04-25T09:54:08;17.30;97.00
10889;DHT22;5497;51.388;6.780;2023-04-25T09:56:42;17.30;96.60
10889;DHT22;5497;51.388;6.780;2023-04-25T09:59:11;17.30;97.00
10889;DHT22;5497;51.388;6.780;2023-04-25T10:01:39;17.40;96.70
10889;DHT22;5497;51.388;6.780;2023-04-25T10:04:22;17.60;97.50
10889;DHT22;5497;51.388;6.780;2023-04-25T10:07:01;17.70;97.00
10889;DHT22;5497;51.388;6.780;2023-04-25T10:09:30;17.70;96.30
10889;DHT22;5497;51.388;6.780;2023-04-25T10:11:59;17.40;95.90
10889;DHT22;5497;51.388;6.780;2023-04-25T10:14:27;16.90;95.80
10889;DHT22;5497;51.388;6.780;2023-04-25T10:16:55;16.80;95.10
10889;DHT22;5497;51.388;6.780;2023-04-25T10:19:22;16.50;95.00
10889;DHT22;5497;51.388;6.780;2023-04-25T10:21:50;16.50;95.40
10889;DHT22;5497;51.388;6.780;2023-04-25T10:24:17;16.40;95.30
10889;DHT22;5497;51.388;6.780;2023-04-25T10:26:45;17.00;95.40
10889;DHT22;5497;51.388;6.780;2023-04-25T10:29:12;16.00;95.20
10889;DHT22;5497;51.388;6.780;2023-04-25T10:31:49;15.90;95.20
10889;DHT22;5497;51.388;6.780;2023-04-25T10:34:15;15.20;95.40
10889;DHT22;5497;51.388;6.780;2023-04-25T10:36:43;15.20;95.50
10889;DHT22;5497;51.388;6.780;2023-04-25T10:39:15;14.70;95.80
10889;DHT22;5497;51.388;6.780;2023-04-25T10:41:48;14.70;95.60
10889;DHT22;5497;51.388;6.780;2023-04-25T10:44:18;14.50;96.10
10889;DHT22;5497;51.388;6.780;2023-04-25T10:46:45;14.50;96.50
10889;DHT22;5497;51.388;6.780;2023-04-25T10:49:27;14.70;96.90
10889;DHT22;5497;51.388;6.780;2023-04-25T10:54:21;15.70;96.70
10889;DHT22;5497;51.388;6.780;2023-04-25T10:56:50;15.80;96.70
10889;DHT22;5497;51.388;6.780;2023-04-25T10:59:18;15.70;96.50
10889;DHT22;5497;51.388;6.780;2023-04-25T11:01:47;16.10;96.50
10889;DHT22;5497;51.388;6.780;2023-04-25T11:04:22;16.10;96.40
10889;DHT22;5497;51.388;6.780;2023-04-25T11:06:58;15.90;96.30
10889;DHT22;5497;51.388;6.780;2023-04-25T11:09:26;15.40;96.10
10889;DHT22;5497;51.388;6.780;2023-04-25T11:11:54;15.20;96.90
10889;DHT22;5497;51.388;6.780;2023-04-25T11:14:21;14.40;96.80
10889;DHT22;5497;51.388;6.780;2023-04-25T11:16:52;13.90;97.30
10889;DHT22;5497;51.388;6.780;2023-04-25T11:19:19;13.40;97.80
10889;DHT22;5497;51.388;6.780;2023-04-25T11:21:47;13.40;98.00
10889;DHT22;5497;51.388;6.780;2023-04-25T11:24:14;12.80;98.20
10889;DHT22;5497;51.388;6.780;2023-04-25T11:26:42;12.30;98.20
10889;DHT22;5497;51.388;6.780;2023-04-25T11:31:36;11.50;99.80
10889;DHT22;5497;51.388;6.780;2023-04-25T11:38:58;11.90;99.90
10889;DHT22;5497;51.388;6.780;2023-04-25T11:43:52;12.30;99.90
10889;DHT22;5497;51.388;6.780;2023-04-25T11:46:19;12.20;99.90
10889;DHT22;5497;51.388;6.780;2023-04-25T11:56:11;12.20;99.90
10889;DHT22;5497;51.388;6.780;2023-04-25T11:58:54;12.20;99.90
10889;DHT22;5497;51.388;6.780;2023-04-25T12:01:25;12.20;99.90
10889;DHT22;5497;51.388;6.780;2023-04-25T12:03:51;11.80;99.90
10889;DHT22;5497;51.388;6.780;2023-04-25T12:06:18;11.60;99.90
10889;DHT22;5497;51.388;6.780;2023-04-25T12:08:58;11.60;99.90
10889;DHT22;5497;51.388;6.780;2023-04-25T12:11:26;11.20;99.90
10889;DHT22;5497;51.388;6.780;2023-04-25T12:13:53;11.10;99.90
10889;DHT22;5497;51.388;6.780;2023-04-25T12:16:20;11.70;99.90
10889;DHT22;5497;51.388;6.780;2023-04-25T12:18:47;11.20;99.90
10889;DHT22;5497;51.388;6.780;2023-04-25T12:21:14;11.40;99.90
10889;DHT22;5497;51.388;6.780;2023-04-25T12:23:41;11.60;99.90
10889;DHT22;5497;51.388;6.780;2023-04-25T12:26:07;11.60;99.90
10889;DHT22;5497;51.388;6.780;2023-04-25T12:28:36;11.80;99.90
10889;DHT22;5497;51.388;6.780;2023-04-25T12:31:03;12.10;99.90
10889;DHT22;5497;51.388;6.780;2023-04-25T12:33:30;12.20;99.90
10889;DHT22;5497;51.388;6.780;2023-04-25T12:35:57;12.20;99.90
10889;DHT22;5497;51.388;6.780;2023-04-25T12:38:25;12.70;99.90
10889;DHT22;5497;51.388;6.780;2023-04-25T12:40:52;12.20;99.90
10889;DHT22;5497;51.388;6.780;2023-04-25T12:43:19;13.50;99.90
10889;DHT22;5497;51.388;6.780;2023-04-25T12:45:48;12.30;99.90
10889;DHT22;5497;51.388;6.780;2023-04-25T12:48:16;12.20;99.90
10889;DHT22;5497;51.388;6.780;2023-04-25T12:50:42;12.30;99.90
10889;DHT22;5497;51.388;6.780;2023-04-25T12:53:10;12.30;99.90
10889;DHT22;5497;51.388;6.780;2023-04-25T12:55:36;12.40;99.90
10889;DHT22;5497;51.388;6.780;2023-04-25T12:58:03;13.10;99.90
10889;DHT22;5497;51.388;6.780;2023-04-25T13:00:30;13.40;99.90
10889;DHT22;5497;51.388;6.780;2023-04-25T13:02:58;13.90;99.90
10889;DHT22;5497;51.388;6.780;2023-04-25T13:05:25;14.10;99.90
10889;DHT22;5497;51.388;6.780;2023-04-25T13:07:52;14.10;99.90
10889;DHT22;5497;51.388;6.780;2023-04-25T13:10:23;14.10;99.90
10889;DHT22;5497;51.388;6.780;2023-04-25T13:12:50;13.90;99.90
10889;DHT22;5497;51.388;6.780;2023-04-25T13:15:17;13.50;99.90
10889;DHT22;5497;51.388;6.780;2023-04-25T13:17:43;12.70;99.90
10889;DHT22;5497;51.388;6.780;2023-04-25T13:20:12;12.60;99.90
10889;DHT22;5497;51.388;6.780;2023-04-25T13:22:40;12.30;99.90
10889;DHT22;5497;51.388;6.780;2023-04-25T13:25:07;12.10;99.90
10889;DHT22;5497;51.388;6.780;2023-04-25T13:27:34;12.10;99.90
10889;DHT22;5497;51.388;6.780;2023-04-25T13:30:02;12.10;99.90
10889;DHT22;5497;51.388;6.780;2023-04-25T13:32:32;12.10;99.90
10889;DHT22;5497;51.388;6.780;2023-04-25T13:34:59;9.80;99.90
10889;DHT22;5497;51.388;6.780;2023-04-25T13:37:27;11.80;99.90
10889;DHT22;5497;51.388;6.780;2023-04-25T13:39:55;11.80;99.90
10889;DHT22;5497;51.388;6.780;2023-04-25T13:42:22;11.80;99.90
10889;DHT22;5497;51.388;6.780;2023-04-25T13:44:50;12.20;99.90
10889;DHT22;5497;51.388;6.780;2023-04-25T13:47:16;13.00;99.90
10889;DHT22;5497;51.388;6.780;2023-04-25T13:49:43;13.10;99.90
10889;DHT22;5497;51.388;6.780;2023-04-25T13:52:10;13.60;99.90
10889;DHT22;5497;51.388;6.780;2023-04-25T13:54:38;14.00;99.90
10889;DHT22;5497;51.388;6.780;2023-04-25T13:57:05;14.20;99.90
10889;DHT22;5497;51.388;6.780;2023-04-25T13:59:32;14.10;99.90
10889;DHT22;5497;51.388;6.780;2023-04-25T14:01:59;13.90;99.90
10889;DHT22;5497;51.388;6.780;2023-04-25T14:04:26;15.80;99.90
10889;DHT22;5497;51.388;6.780;2023-04-25T14:06:52;13.40;99.90
10889;DHT22;5497;51.388;6.780;2023-04-25T14:09:19;13.20;99.90
10889;DHT22;5497;51.388;6.780;2023-04-25T14:11:53;13.00;99.90
10889;DHT22;5497;51.388;6.780;2023-04-25T14:14:20;13.00;99.90
10889;DHT22;5497;51.388;6.780;2023-04-25T14:16:47;12.80;99.90
10889;DHT22;5497;51.388;6.780;2023-04-25T14:19:14;12.70;99.90
10889;DHT22;5497;51.388;6.780;2023-04-25T14:21:41;12.70;99.90
10889;DHT22;5497;51.388;6.780;2023-04-25T14:24:08;13.00;99.90
10889;DHT22;5497;51.388;6.780;2023-04-25T14:26:34;13.60;99.90
10889;DHT22;5497;51.388;6.780;2023-04-25T14:29:03;14.10;99.90
10889;DHT22;5497;51.388;6.780;2023-04-25T14:31:30;14.30;99.90
10889;DHT22;5497;51.388;6.780;2023-04-25T14:33:57;14.30;99.90
10889;DHT22;5497;51.388;6.780;2023-04-25T14:36:24;14.40;99.90
10889;DHT22;5497;51.388;6.780;2023-04-25T14:38:51;14.40;99.90
10889;DHT22;5497;51.388;6.780;2023-04-25T14:41:18;14.30;99.90
10889;DHT22;5497;51.388;6.780;2023-04-25T14:43:45;14.10;99.90
10889;DHT22;5497;51.388;6.780;2023-04-25T14:46:13;13.90;99.90
10889;DHT22;5497;51.388;6.780;2023-04-25T14:48:40;13.50;99.90
10889;DHT22;5497;51.388;6.780;2023-04-25T14:51:07;13.30;99.90
10889;DHT22;5497;51.388;6.780;2023-04-25T14:53:33;13.00;99.90
10889;DHT22;5497;51.388;6.780;2023-04-25T14:56:00;12.60;99.90
10889;DHT22;5497;51.388;6.780;2023-04-25T14:58:27;12.40;99.90
10889;DHT22;5497;51.388;6.780;2023-04-25T15:00:53;12.40;99.90
10889;DHT22;5497;51.388;6.780;2023-04-25T15:03:21;12.40;99.90
10889;DHT22;5497;51.388;6.780;2023-04-25T15:05:48;12.40;99.90
10889;DHT22;5497;51.388;6.780;2023-04-25T15:08:15;12.30;99.90
10889;DHT22;5497;51.388;6.780;2023-04-25T15:10:42;12.30;99.90
10889;DHT22;5497;51.388;6.780;2023-04-25T15:13:08;12.40;99.90
10889;DHT22;5497;51.388;6.780;2023-04-25T15:15:35;12.60;99.90
10889;DHT22;5497;51.388;6.780;2023-04-25T15:18:02;13.00;99.90
10889;DHT22;5497;51.388;6.780;2023-04-25T15:20:31;13.00;99.90
10889;DHT22;5497;51.388;6.780;2023-04-25T15:22:58;12.90;99.90
10889;DHT22;5497;51.388;6.780;2023-04-25T15:25:25;12.90;99.90
10889;DHT22;5497;51.388;6.780;2023-04-25T15:27:53;13.00;99.90
10889;DHT22;5497;51.388;6.780;2023-04-25T15:30:21;12.90;99.90
10889;DHT22;5497;51.388;6.780;2023-04-25T15:32:49;12.90;99.90
10889;DHT22;5497;51.388;6.780;2023-04-25T15:35:15;14.10;99.90
10889;DHT22;5497;51.388;6.780;2023-04-25T15:37:44;13.00;99.90
10889;DHT22;5497;51.388;6.780;2023-04-25T15:40:11;13.10;99.90
10889;DHT22;5497;51.388;6.780;2023-04-25T15:42:38;13.00;99.90
10889;DHT22;5497;51.388;6.780;2023-04-25T15:45:06;12.80;99.90
10889;DHT22;5497;51.388;6.780;2023-04-25T15:47:33;12.70;99.90
10889;DHT22;5497;51.388;6.780;2023-04-25T15:50:00;12.70;99.90
10889;DHT22;5497;51.388;6.780;2023-04-25T15:52:27;12.70;99.90
10889;DHT22;5497;51.388;6.780;2023-04-25T15:54:55;12.60;99.90
10889;DHT22;5497;51.388;6.780;2023-04-25T15:57:22;12.50;99.80
10889;DHT22;5497;51.388;6.780;2023-04-25T15:59:49;12.50;99.90
10889;DHT22;5497;51.388;6.780;2023-04-25T16:02:16;12.60;99.90
10889;DHT22;5497;51.388;6.780;2023-04-25T16:04:43;12.80;99.90
10889;DHT22;5497;51.388;6.780;2023-04-25T16:07:11;13.20;99.90
10889;DHT22;5497;51.388;6.780;2023-04-25T16:09:38;13.20;99.90
10889;DHT22;5497;51.388;6.780;2023-04-25T16:12:14;13.20;99.90
10889;DHT22;5497;51.388;6.780;2023-04-25T16:14:41;13.20;99.80
10889;DHT22;5497;51.388;6.780;2023-04-25T16:17:08;13.10;99.90
10889;DHT22;5497;51.388;6.780;2023-04-25T16:19:35;13.10;99.90
10889;DHT22;5497;51.388;6.780;2023-04-25T16:22:02;13.00;99.60
10889;DHT22;5497;51.388;6.780;2023-04-25T16:24:29;13.00;99.90
10889;DHT22;5497;51.388;6.780;2023-04-25T16:29:24;13.00;99.90
10889;DHT22;5497;51.388;6.780;2023-04-25T16:31:51;12.90;99.90